Time;durP1;ratioP1;P1;durP2;ratioP2;P2;SDS_P1;SDS_P2;PMS_P1;PMS_P2;Temp;Humidity;BMP_temperature;BMP_pressure;BME280_temperature;BME280_humidity;BME280_pressure;Samples;Min_cycle;Max_cycle;Signal;HPM_P1;HPM_P2
2021/01/24 00:00:25;;;;;;;30.80;22.77;;;3.60;96.40;;;;;;4986589;28;20109;-42
2021/01/24 00:02:50;;;;;;;36.40;24.48;;;3.60;96.40;;;;;;4986106;28;20031;-42
2021/01/24 00:05:16;;;;;;;34.30;25.08;;;3.70;96.40;;;;;;4986468;28;20030;-42
2021/01/24 00:07:42;;;;;;;37.92;27.20;;;3.70;96.50;;;;;;4985754;28;20128;-42
2021/01/24 00:10:12;;;;;;;37.20;25.88;;;3.70;96.50;;;;;;4986456;28;20183;-42
2021/01/24 00:12:38;;;;;;;36.08;24.10;;;3.70;96.50;;;;;;4985695;28;20029;-42
2021/01/24 00:15:08;;;;;;;32.80;22.70;;;3.70;96.50;;;;;;4986412;28;20434;-43
2021/01/24 00:17:34;;;;;;;32.53;23.40;;;3.70;96.50;;;;;;4986105;28;20119;-41
2021/01/24 00:20:03;;;;;;;34.05;21.90;;;3.70;96.60;;;;;;4986238;28;20535;-41
2021/01/24 00:22:29;;;;;;;28.33;20.40;;;3.70;96.60;;;;;;4986157;28;20026;-41
2021/01/24 00:24:55;;;;;;;30.05;21.60;;;3.70;96.60;;;;;;4985389;28;20029;-41
2021/01/24 00:27:21;;;;;;;28.50;20.95;;;3.60;96.60;;;;;;4986354;28;20052;-41
2021/01/24 00:29:47;;;;;;;31.88;21.33;;;3.60;96.70;;;;;;4985584;28;20030;-41
2021/01/24 00:32:13;;;;;;;27.42;20.02;;;3.60;96.70;;;;;;4986219;28;20092;-41
2021/01/24 00:34:39;;;;;;;27.63;19.55;;;3.50;96.70;;;;;;4985850;28;20014;-42
2021/01/24 00:37:05;;;;;;;30.65;19.30;;;3.60;96.70;;;;;;4986503;28;20014;-41
2021/01/24 00:39:31;;;;;;;26.65;19.10;;;3.50;96.70;;;;;;4985422;28;20109;-42
2021/01/24 00:41:57;;;;;;;30.13;19.48;;;3.50;96.70;;;;;;4985849;28;20034;-42
2021/01/24 00:44:22;;;;;;;27.38;18.02;;;3.50;96.70;;;;;;4985893;28;20030;-42
2021/01/24 00:46:48;;;;;;;26.23;19.42;;;3.50;96.70;;;;;;4984880;28;20641;-43
2021/01/24 00:49:14;;;;;;;24.15;16.80;;;3.50;96.70;;;;;;4986339;28;20041;-42
2021/01/24 00:51:39;;;;;;;27.85;18.17;;;3.50;96.70;;;;;;4985458;28;20030;-41
2021/01/24 00:54:05;;;;;;;28.30;17.85;;;3.50;96.80;;;;;;4985151;28;20052;-42
2021/01/24 00:56:30;;;;;;;27.20;17.60;;;3.50;96.70;;;;;;4986142;28;20042;-42
2021/01/24 00:58:59;;;;;;;23.00;16.30;;;3.50;96.70;;;;;;4984897;28;20038;-42
2021/01/24 01:01:25;;;;;;;21.48;14.95;;;3.50;96.70;;;;;;4985738;28;20034;-42
2021/01/24 01:03:50;;;;;;;21.20;15.75;;;3.50;96.70;;;;;;4984921;28;20776;-42
2021/01/24 01:06:16;;;;;;;26.38;17.13;;;3.60;96.70;;;;;;4985689;28;20038;-41
2021/01/24 01:08:41;;;;;;;23.65;16.73;;;3.60;96.70;;;;;;4984259;28;20049;-42
2021/01/24 01:11:07;;;;;;;21.48;15.63;;;3.50;96.60;;;;;;4985636;28;20331;-42
2021/01/24 01:13:32;;;;;;;18.70;14.70;;;3.50;96.70;;;;;;4985217;28;20027;-42
2021/01/24 01:15:58;;;;;;;20.58;14.18;;;3.50;96.70;;;;;;4985073;28;20030;-43
2021/01/24 01:18:27;;;;;;;18.02;12.25;;;3.50;96.70;;;;;;4985614;28;20037;-43
2021/01/24 01:20:53;;;;;;;24.85;14.25;;;3.60;96.70;;;;;;4984674;28;20030;-43
2021/01/24 01:23:18;;;;;;;20.35;13.68;;;3.50;96.60;;;;;;4984924;28;20038;-43
2021/01/24 01:25:44;;;;;;;16.70;12.13;;;3.50;96.60;;;;;;4984728;28;20150;-43
2021/01/24 01:28:09;;;;;;;17.38;11.88;;;3.50;96.70;;;;;;4984656;28;20148;-43
2021/01/24 01:30:35;;;;;;;19.42;11.77;;;3.50;96.70;;;;;;4985357;28;20037;-43
2021/01/24 01:33:00;;;;;;;18.40;12.52;;;3.50;96.70;;;;;;4985195;28;20496;-42
2021/01/24 01:35:26;;;;;;;17.60;12.00;;;3.50;96.60;;;;;;4984743;28;20580;-41
2021/01/24 01:37:51;;;;;;;18.02;11.98;;;3.50;96.70;;;;;;4984994;28;20042;-42
2021/01/24 01:40:17;;;;;;;19.98;12.75;;;3.50;96.70;;;;;;4985091;28;20158;-43
2021/01/24 01:42:42;;;;;;;19.27;11.85;;;3.50;96.70;;;;;;4984423;28;20037;-42
2021/01/24 01:45:11;;;;;;;21.30;13.45;;;3.50;96.70;;;;;;4985693;28;20107;-42
2021/01/24 01:47:37;;;;;;;21.23;13.50;;;3.40;96.70;;;;;;4985210;28;20103;-42
2021/01/24 01:50:03;;;;;;;17.17;12.63;;;3.40;96.80;;;;;;4984409;28;20534;-41
2021/01/24 01:52:32;;;;;;;20.95;13.77;;;3.40;96.80;;;;;;4985190;28;20037;-41
2021/01/24 01:54:58;;;;;;;19.83;13.57;;;3.30;96.90;;;;;;4984497;28;20041;-41
2021/01/24 01:57:24;;;;;;;19.02;12.38;;;3.30;96.90;;;;;;4984468;28;20105;-42
2021/01/24 01:59:51;;;;;;;19.95;13.07;;;3.30;96.90;;;;;;4984871;28;20501;-41
2021/01/24 02:03:02;;;;;;;18.02;12.88;;;3.30;97.30;;;;;;4984907;28;20422;-42
2021/01/24 02:05:43;;;;;;;21.55;12.40;;;3.30;96.90;;;;;;4984697;28;20038;-41
2021/01/24 02:08:21;;;;;;;18.80;12.05;;;3.30;96.90;;;;;;4985352;28;20481;-41
2021/01/24 02:10:55;;;;;;;17.88;10.80;;;3.30;96.90;;;;;;4984169;28;20050;-42
2021/01/24 02:13:26;;;;;;;19.88;10.88;;;3.30;97.00;;;;;;4985190;28;20101;-42
2021/01/24 02:15:53;;;;;;;15.88;9.52;;;3.30;97.00;;;;;;4984611;28;20018;-42
2021/01/24 02:18:20;;;;;;;14.38;8.82;;;3.30;97.00;;;;;;4984921;28;20101;-43
2021/01/24 02:21:02;;;;;;;12.20;8.35;;;3.30;97.00;;;;;;4984332;28;20027;-41
2021/01/24 02:23:28;;;;;;;12.10;8.45;;;3.30;97.00;;;;;;4982847;28;20023;-42
2021/01/24 02:26:23;;;;;;;15.13;8.85;;;3.30;97.00;;;;;;4984112;28;20097;-42
2021/01/24 02:29:03;;;;;;;14.73;8.73;;;3.30;97.00;;;;;;4983402;28;20054;-42
2021/01/24 02:31:31;;;;;;;15.70;8.70;;;3.30;97.00;;;;;;4984585;28;20030;-42
2021/01/24 02:33:58;;;;;;;14.82;9.20;;;3.30;96.90;;;;;;4986692;28;20069;-42
2021/01/24 02:36:26;;;;;;;15.15;9.40;;;3.30;97.00;;;;;;4988540;28;20035;-42
2021/01/24 02:38:53;;;;;;;16.45;9.82;;;3.30;97.00;;;;;;4987617;28;20084;-43
2021/01/24 02:41:19;;;;;;;14.52;8.43;;;3.30;97.00;;;;;;4988603;28;20302;-42
2021/01/24 02:43:46;;;;;;;17.33;9.50;;;3.30;97.00;;;;;;4987399;28;20399;-41
2021/01/24 02:46:14;;;;;;;16.23;9.77;;;3.30;97.00;;;;;;4988197;28;20034;-41
2021/01/24 02:48:40;;;;;;;16.10;9.43;;;3.30;97.00;;;;;;4986825;28;20338;-41
2021/01/24 02:51:06;;;;;;;14.68;8.70;;;3.30;97.00;;;;;;4988081;28;20820;-43
2021/01/24 02:53:33;;;;;;;14.60;9.45;;;3.30;97.00;;;;;;4987807;28;20098;-44
2021/01/24 02:56:01;;;;;;;13.68;8.82;;;3.30;97.00;;;;;;4987434;28;20018;-42
2021/01/24 02:58:29;;;;;;;13.98;8.93;;;3.30;97.00;;;;;;4988270;28;20652;-42
2021/01/24 03:00:54;;;;;;;11.57;7.63;;;3.30;97.00;;;;;;4986958;28;20029;-42
2021/01/24 03:03:20;;;;;;;11.85;7.88;;;3.30;97.00;;;;;;4987648;28;20030;-42
2021/01/24 03:05:45;;;;;;;9.95;7.40;;;3.40;97.10;;;;;;4987015;28;20524;-42
2021/01/24 03:08:11;;;;;;;11.00;6.38;;;3.40;97.00;;;;;;4986802;28;20030;-42
2021/01/24 03:10:36;;;;;;;9.32;7.25;;;3.40;97.10;;;;;;4987227;28;20022;-42
2021/01/24 03:13:11;;;;;;;11.20;7.18;;;3.50;97.10;;;;;;4987621;28;20026;-42
2021/01/24 03:15:37;;;;;;;9.88;7.07;;;3.50;97.10;;;;;;4986755;28;20030;-42
2021/01/24 03:18:04;;;;;;;9.88;6.32;;;3.50;97.10;;;;;;4987042;28;20022;-42
2021/01/24 03:20:36;;;;;;;9.85;6.68;;;3.50;97.10;;;;;;4987451;28;20402;-43
2021/01/24 03:23:03;;;;;;;11.68;7.57;;;3.50;97.10;;;;;;4986766;28;20476;-42
2021/01/24 03:25:30;;;;;;;10.45;7.53;;;3.50;97.00;;;;;;4987525;28;20125;-42
2021/01/24 03:27:57;;;;;;;13.80;7.68;;;3.60;97.30;;;;;;4986324;28;20145;-42
2021/01/24 03:30:22;;;;;;;11.35;7.50;;;3.60;97.00;;;;;;4985718;28;20025;-42
2021/01/24 03:32:48;;;;;;;10.75;6.82;;;3.60;97.00;;;;;;4986689;28;20034;-43
2021/01/24 03:35:13;;;;;;;12.32;8.60;;;3.50;97.00;;;;;;4986806;28;20053;-42
2021/01/24 03:37:39;;;;;;;13.00;8.07;;;3.60;97.00;;;;;;4986692;28;20049;-41
2021/01/24 03:40:05;;;;;;;11.50;7.80;;;3.60;97.00;;;;;;4987192;28;20038;-45
2021/01/24 03:42:31;;;;;;;13.68;8.60;;;3.50;97.00;;;;;;4986243;28;20409;-43
2021/01/24 03:44:56;;;;;;;13.27;8.38;;;3.60;97.00;;;;;;4985579;28;20034;-42
2021/01/24 03:47:22;;;;;;;14.55;9.43;;;3.60;97.00;;;;;;4986780;28;20121;-42
2021/01/24 03:49:47;;;;;;;13.55;9.05;;;3.60;97.00;;;;;;4985744;28;20370;-43
2021/01/24 03:52:13;;;;;;;13.68;9.13;;;3.50;97.00;;;;;;4987578;28;20113;-46
2021/01/24 03:54:39;;;;;;;13.77;9.50;;;3.50;97.00;;;;;;4986159;28;20030;-43
2021/01/24 03:57:04;;;;;;;13.30;9.07;;;3.50;97.00;;;;;;4986538;28;20049;-42
2021/01/24 03:59:30;;;;;;;13.90;9.30;;;3.50;97.00;;;;;;4987175;28;20038;-42
2021/01/24 04:01:55;;;;;;;15.93;9.32;;;3.50;97.00;;;;;;4986007;28;20132;-41
2021/01/24 04:04:21;;;;;;;13.35;9.05;;;3.50;97.00;;;;;;4986694;28;20042;-42
2021/01/24 04:06:46;;;;;;;12.75;9.32;;;3.50;97.00;;;;;;4986283;28;20146;-42
2021/01/24 04:09:11;;;;;;;16.67;10.23;;;3.50;97.00;;;;;;4986521;28;20052;-40
2021/01/24 04:11:37;;;;;;;14.60;9.57;;;3.50;97.00;;;;;;4985621;28;20040;-41
2021/01/24 04:14:03;;;;;;;16.35;10.10;;;3.50;97.00;;;;;;4986739;28;20034;-41
2021/01/24 04:16:31;;;;;;;15.30;9.65;;;3.50;97.00;;;;;;4986167;28;20037;-41
2021/01/24 04:19:06;;;;;;;14.93;9.32;;;3.50;97.00;;;;;;4985489;28;20057;-42
2021/01/24 04:21:31;;;;;;;17.45;9.98;;;3.50;97.00;;;;;;4986716;28;20029;-43
2021/01/24 04:23:57;;;;;;;13.65;9.80;;;3.50;97.10;;;;;;4985781;28;20030;-41
2021/01/24 04:26:22;;;;;;;13.98;9.63;;;3.40;97.00;;;;;;4986615;28;20096;-42
2021/01/24 04:28:48;;;;;;;13.35;9.80;;;3.40;97.00;;;;;;4985376;28;20065;-42
2021/01/24 04:31:14;;;;;;;14.75;9.63;;;3.40;97.10;;;;;;4985749;28;20495;-41
2021/01/24 04:33:40;;;;;;;16.10;10.68;;;3.40;97.10;;;;;;4985787;28;20027;-42
2021/01/24 04:36:15;;;;;;;17.85;9.25;;;3.40;97.10;;;;;;4986312;28;20021;-43
2021/01/24 04:38:41;;;;;;;16.58;10.18;;;3.40;97.10;;;;;;4985349;28;20072;-42
2021/01/24 04:41:06;;;;;;;18.20;9.88;;;3.40;97.10;;;;;;4985809;28;20038;-42
2021/01/24 04:43:35;;;;;;;16.70;11.38;;;3.40;97.10;;;;;;4986117;28;20550;-42
2021/01/24 04:46:04;;;;;;;21.33;10.93;;;3.40;97.20;;;;;;4985295;28;20046;-42
2021/01/24 04:48:29;;;;;;;18.95;11.10;;;3.40;97.20;;;;;;4986097;28;20104;-41
2021/01/24 04:50:55;;;;;;;19.08;11.93;;;3.40;97.20;;;;;;4985138;28;20023;-42
2021/01/24 04:53:22;;;;;;;18.92;11.65;;;3.40;97.30;;;;;;4985484;28;20030;-42
2021/01/24 04:55:50;;;;;;;18.65;11.82;;;3.30;97.30;;;;;;4985378;28;20030;-42
2021/01/24 04:58:16;;;;;;;17.27;11.60;;;3.30;97.40;;;;;;4985231;28;20148;-42
2021/01/24 05:00:42;;;;;;;16.63;10.98;;;3.30;97.50;;;;;;4984993;28;20096;-42
2021/01/24 05:03:07;;;;;;;15.65;10.48;;;3.30;97.40;;;;;;4985800;28;20536;-42
2021/01/24 05:05:33;;;;;;;14.52;9.88;;;3.30;97.40;;;;;;4985241;28;20160;-42
2021/01/24 05:07:59;;;;;;;13.98;9.13;;;3.30;97.40;;;;;;4984572;28;20034;-42
2021/01/24 05:10:27;;;;;;;12.85;8.68;;;3.30;97.40;;;;;;4985859;28;20346;-42
2021/01/24 05:12:54;;;;;;;10.50;7.63;;;3.30;97.40;;;;;;4984168;28;20037;-41
2021/01/24 05:15:21;;;;;;;12.02;8.00;;;3.30;97.40;;;;;;4985040;28;20022;-42
2021/01/24 05:17:57;;;;;;;11.27;8.05;;;3.30;97.40;;;;;;4984751;28;20122;-42
2021/01/24 05:20:28;;;;;;;10.90;7.85;;;3.30;97.30;;;;;;4984857;28;20081;-45
2021/01/24 05:22:59;;;;;;;14.85;8.60;;;3.30;97.30;;;;;;4984536;28;20038;-42
2021/01/24 05:25:34;;;;;;;14.90;9.18;;;3.30;97.30;;;;;;4985134;28;20241;-42
2021/01/24 05:28:18;;;;;;;12.35;8.38;;;3.30;97.30;;;;;;4983670;28;20070;-42
2021/01/24 05:30:43;;;;;;;14.77;8.40;;;3.30;97.30;;;;;;4984620;28;20393;-42
2021/01/24 05:33:09;;;;;;;15.55;9.30;;;3.30;97.30;;;;;;4985142;28;20022;-42
2021/01/24 05:35:49;;;;;;;16.05;8.90;;;3.30;97.30;;;;;;4984333;28;20037;-42
2021/01/24 05:38:43;;;;;;;12.55;8.13;;;3.30;97.30;;;;;;4985162;28;20033;-41
2021/01/24 05:41:11;;;;;;;12.45;7.88;;;3.30;97.30;;;;;;4983654;28;20034;-42
2021/01/24 05:43:44;;;;;;;16.05;8.02;;;3.20;97.30;;;;;;4984307;28;20030;-42
2021/01/24 05:46:11;;;;;;;11.73;8.07;;;3.20;97.30;;;;;;4984840;28;20488;-42
2021/01/24 05:48:45;;;;;;;11.23;7.60;;;3.20;97.40;;;;;;4984235;28;20026;-42
2021/01/24 05:51:13;;;;;;;13.60;8.90;;;3.20;97.70;;;;;;4985282;28;20030;-41
2021/01/24 05:53:47;;;;;;;13.98;9.13;;;3.20;97.50;;;;;;4983683;28;20463;-42
2021/01/24 05:56:17;;;;;;;12.88;7.93;;;3.20;97.60;;;;;;4984990;28;20019;-40
2021/01/24 05:58:42;;;;;;;10.05;7.25;;;3.20;97.80;;;;;;4983714;28;20044;-42
2021/01/24 06:01:09;;;;;;;10.00;6.88;;;3.20;97.50;;;;;;4985495;28;20848;-41
2021/01/24 06:03:36;;;;;;;9.35;6.05;;;3.20;97.50;;;;;;4984086;28;20457;-41
2021/01/24 06:06:02;;;;;;;9.18;6.32;;;3.30;97.40;;;;;;4984473;28;20545;-42
2021/01/24 06:08:29;;;;;;;9.50;6.25;;;3.30;97.40;;;;;;4986374;28;20456;-42
2021/01/24 06:10:57;;;;;;;14.18;8.10;;;3.20;97.40;;;;;;4987408;28;20022;-42
2021/01/24 06:13:27;;;;;;;15.80;8.70;;;3.20;97.50;;;;;;4988660;28;20054;-42
2021/01/24 06:15:59;;;;;;;9.73;6.60;;;3.10;97.50;;;;;;4987643;28;20906;-42
2021/01/24 06:18:44;;;;;;;11.90;7.47;;;3.10;97.50;;;;;;4988135;28;20053;-42
2021/01/24 06:21:18;;;;;;;11.25;7.53;;;3.10;97.60;;;;;;4988430;28;20481;-42
2021/01/24 06:23:50;;;;;;;12.00;7.53;;;3.00;97.60;;;;;;4987262;28;20316;-42
2021/01/24 06:26:17;;;;;;;10.80;6.63;;;3.00;97.60;;;;;;4988188;28;20378;-42
2021/01/24 06:28:45;;;;;;;8.35;5.85;;;3.00;97.60;;;;;;4988180;28;20046;-42
2021/01/24 06:31:18;;;;;;;9.25;6.00;;;3.00;97.60;;;;;;4988005;28;20031;-42
2021/01/24 06:33:45;;;;;;;9.15;5.70;;;3.00;97.60;;;;;;4987614;28;20117;-42
2021/01/24 06:36:13;;;;;;;10.55;5.55;;;3.00;97.60;;;;;;4988035;28;20065;-42
2021/01/24 06:38:43;;;;;;;8.63;5.55;;;2.90;97.60;;;;;;4987262;28;20442;-42
2021/01/24 06:41:14;;;;;;;9.27;5.75;;;2.90;97.60;;;;;;4987935;28;20026;-42
2021/01/24 06:43:48;;;;;;;8.73;5.90;;;2.90;97.60;;;;;;4987498;28;20130;-42
2021/01/24 06:46:29;;;;;;;7.68;5.68;;;2.90;97.70;;;;;;4987262;28;20026;-42
2021/01/24 06:48:55;;;;;;;8.68;5.07;;;2.90;97.70;;;;;;4967898;28;20359;-42
2021/01/24 06:51:35;;;;;;;7.78;4.85;;;3.00;97.70;;;;;;4982779;28;20034;-42
2021/01/24 06:54:03;;;;;;;7.05;5.22;;;3.00;97.70;;;;;;4987702;28;20057;-44
2021/01/24 06:57:05;;;;;;;7.55;5.18;;;3.00;97.70;;;;;;4987899;28;20041;-44
2021/01/24 06:59:31;;;;;;;6.47;5.05;;;3.10;97.70;;;;;;4968466;28;20110;-42
2021/01/24 07:02:22;;;;;;;6.72;5.10;;;3.10;97.60;;;;;;4983731;28;20109;-43
2021/01/24 07:05:06;;;;;;;9.07;5.00;;;3.20;97.60;;;;;;4963227;28;20410;-42
2021/01/24 07:07:34;;;;;;;7.25;5.38;;;3.20;97.60;;;;;;4987215;28;20031;-43
2021/01/24 07:10:00;;;;;;;6.60;5.15;;;3.20;97.60;;;;;;4987714;28;20036;-43
2021/01/24 07:12:36;;;;;;;7.63;4.82;;;3.20;97.50;;;;;;4987840;28;20022;-43
2021/01/24 07:15:05;;;;;;;8.15;5.20;;;3.20;97.50;;;;;;4987380;28;20612;-43
2021/01/24 07:17:32;;;;;;;7.05;4.60;;;3.20;97.50;;;;;;4987102;28;20052;-43
2021/01/24 07:19:57;;;;;;;7.93;5.25;;;3.20;97.40;;;;;;4986558;28;20121;-42
2021/01/24 07:22:25;;;;;;;9.35;4.70;;;3.10;97.40;;;;;;4987476;28;20209;-43
2021/01/24 07:24:52;;;;;;;8.15;5.57;;;3.10;97.40;;;;;;4986684;28;20030;-42
2021/01/24 07:27:20;;;;;;;8.52;5.22;;;3.00;97.40;;;;;;4987002;28;20026;-43
2021/01/24 07:29:46;;;;;;;6.95;4.97;;;3.00;97.40;;;;;;4987458;28;20054;-42
2021/01/24 07:32:17;;;;;;;8.43;5.22;;;2.90;97.40;;;;;;4987990;28;20053;-43
2021/01/24 07:34:48;;;;;;;7.18;5.10;;;2.90;97.50;;;;;;4987372;28;20041;-43
2021/01/24 07:37:14;;;;;;;9.88;5.68;;;2.80;97.50;;;;;;4987879;28;20034;-41
2021/01/24 07:39:41;;;;;;;7.70;5.25;;;2.80;97.60;;;;;;4987355;28;20026;-43
2021/01/24 07:42:08;;;;;;;6.75;4.55;;;2.80;97.60;;;;;;4987046;28;20450;-42
2021/01/24 07:44:33;;;;;;;7.30;4.78;;;2.80;97.60;;;;;;4986996;28;20030;-43
2021/01/24 07:46:59;;;;;;;6.63;4.60;;;2.70;97.60;;;;;;4987788;28;20034;-43
2021/01/24 07:49:24;;;;;;;7.70;4.53;;;2.70;97.60;;;;;;4987333;28;20034;-43
2021/01/24 07:51:50;;;;;;;7.82;4.88;;;2.70;97.70;;;;;;4986956;28;20038;-45
2021/01/24 07:54:16;;;;;;;7.10;5.20;;;2.70;97.70;;;;;;4987837;28;20018;-43
2021/01/24 07:56:43;;;;;;;5.57;4.63;;;2.70;97.70;;;;;;4986769;28;20033;-42
2021/01/24 07:59:09;;;;;;;7.13;4.90;;;2.70;97.70;;;;;;4987265;28;20141;-42
2021/01/24 08:01:37;;;;;;;5.82;3.92;;;2.70;97.70;;;;;;4987420;28;20039;-42
2021/01/24 08:04:04;;;;;;;6.90;5.05;;;2.70;97.70;;;;;;4986579;28;20037;-43
2021/01/24 08:06:34;;;;;;;5.45;4.13;;;2.70;97.70;;;;;;4987452;28;20489;-42
2021/01/24 08:09:00;;;;;;;7.72;4.82;;;2.70;97.70;;;;;;4986597;28;20165;-42
2021/01/24 08:11:27;;;;;;;6.93;4.47;;;2.70;97.70;;;;;;4987216;28;20113;-42
2021/01/24 08:13:53;;;;;;;6.72;4.82;;;2.70;97.70;;;;;;4986736;28;20034;-42
2021/01/24 08:16:26;;;;;;;8.57;4.95;;;2.60;97.70;;;;;;4986935;28;20049;-42
2021/01/24 08:18:53;;;;;;;7.78;5.20;;;2.60;97.70;;;;;;4986803;28;20057;-42
2021/01/24 08:21:19;;;;;;;7.85;5.30;;;2.60;97.70;;;;;;4987333;28;20114;-43
2021/01/24 08:23:45;;;;;;;7.60;5.22;;;2.60;97.70;;;;;;4986478;28;20746;-43
2021/01/24 08:26:12;;;;;;;9.40;5.90;;;2.60;97.70;;;;;;4987296;28;20022;-43
2021/01/24 08:28:39;;;;;;;7.50;5.45;;;2.60;97.80;;;;;;4986132;28;20141;-43
2021/01/24 08:31:05;;;;;;;7.53;5.20;;;2.60;97.80;;;;;;4986719;28;20037;-43
2021/01/24 08:33:32;;;;;;;8.57;6.07;;;2.60;97.80;;;;;;4986575;28;20044;-43
2021/01/24 08:36:12;;;;;;;6.55;4.60;;;2.60;97.80;;;;;;4986401;28;20073;-43
2021/01/24 08:38:42;;;;;;;6.65;4.30;;;2.60;97.80;;;;;;4986108;28;20022;-43
2021/01/24 08:41:09;;;;;;;6.32;4.43;;;2.50;97.80;;;;;;4986651;28;20030;-42
2021/01/24 08:43:34;;;;;;;5.63;4.28;;;2.50;97.80;;;;;;4986346;28;20066;-42
2021/01/24 08:46:24;;;;;;;6.78;4.30;;;2.50;97.80;;;;;;4986746;28;20014;-43
2021/01/24 08:49:19;;;;;;;5.05;3.58;;;2.50;97.80;;;;;;4986342;28;20042;-43
2021/01/24 08:51:56;;;;;;;4.45;3.92;;;2.50;97.80;;;;;;4976025;28;20097;-43
2021/01/24 08:54:32;;;;;;;5.97;4.30;;;2.50;97.80;;;;;;4987024;28;20044;-42
2021/01/24 08:57:14;;;;;;;5.78;3.90;;;2.50;97.80;;;;;;4976505;28;20034;-43
2021/01/24 08:59:48;;;;;;;5.18;3.70;;;2.50;97.80;;;;;;4985955;28;20038;-43
2021/01/24 09:02:14;;;;;;;4.30;3.25;;;2.50;97.80;;;;;;4986417;28;20393;-43
2021/01/24 09:04:46;;;;;;;4.28;3.33;;;2.50;97.80;;;;;;4986553;28;20136;-43
2021/01/24 09:07:14;;;;;;;3.97;3.10;;;2.50;97.80;;;;;;4975576;28;20022;-43
2021/01/24 09:09:45;;;;;;;6.13;3.90;;;2.50;97.80;;;;;;4985770;28;20045;-43
2021/01/24 09:12:19;;;;;;;5.38;3.40;;;2.50;97.90;;;;;;4986377;28;20270;-43
2021/01/24 09:14:46;;;;;;;6.50;3.05;;;2.50;97.90;;;;;;4986330;28;20037;-42
2021/01/24 09:17:13;;;;;;;4.53;3.33;;;2.50;97.90;;;;;;4986189;28;20041;-43
2021/01/24 09:19:40;;;;;;;4.57;2.72;;;2.50;97.90;;;;;;4985832;28;20030;-43
2021/01/24 09:22:10;;;;;;;4.20;3.10;;;2.50;97.90;;;;;;4986170;28;20139;-43
2021/01/24 09:24:37;;;;;;;4.45;2.75;;;2.50;97.90;;;;;;4986095;28;20549;-43
2021/01/24 09:27:04;;;;;;;3.45;2.95;;;2.50;97.90;;;;;;4985675;28;20026;-43
2021/01/24 09:29:30;;;;;;;3.35;2.70;;;2.50;98.00;;;;;;4986274;28;20133;-43
2021/01/24 09:31:56;;;;;;;3.70;2.50;;;2.50;98.00;;;;;;4985917;28;20549;-43
2021/01/24 09:34:21;;;;;;;3.28;2.10;;;2.50;98.00;;;;;;4985786;28;20030;-43
2021/01/24 09:36:49;;;;;;;6.20;2.40;;;2.60;98.00;;;;;;4986122;28;20038;-43
2021/01/24 09:39:15;;;;;;;3.45;2.50;;;2.60;98.10;;;;;;4985977;28;20022;-43
2021/01/24 09:41:41;;;;;;;5.95;2.28;;;2.60;98.00;;;;;;4984947;28;20029;-44
2021/01/24 09:44:07;;;;;;;2.70;1.70;;;2.70;98.00;;;;;;4989329;28;20117;-42
2021/01/24 09:46:32;;;;;;;2.58;1.95;;;2.70;98.00;;;;;;4989202;28;20034;-44
2021/01/24 09:48:58;;;;;;;2.28;2.00;;;2.70;98.00;;;;;;4989902;28;20038;-42
2021/01/24 09:51:24;;;;;;;3.03;2.17;;;2.80;98.00;;;;;;4989696;28;20447;-44
2021/01/24 09:53:56;;;;;;;3.33;1.90;;;2.80;98.00;;;;;;4989750;28;20129;-42
2021/01/24 09:56:23;;;;;;;3.07;1.80;;;2.80;98.00;;;;;;4989355;28;20023;-42
2021/01/24 09:58:48;;;;;;;2.30;2.05;;;2.90;97.90;;;;;;4989852;28;20281;-42
2021/01/24 10:01:14;;;;;;;3.20;2.00;;;2.90;97.90;;;;;;4989830;28;20033;-43
2021/01/24 10:03:40;;;;;;;4.15;2.50;;;3.00;98.20;;;;;;4987247;28;20113;-42
2021/01/24 10:06:06;;;;;;;2.45;2.22;;;3.00;98.00;;;;;;4983943;28;20027;-43
2021/01/24 10:08:32;;;;;;;2.85;2.20;;;3.10;98.00;;;;;;4988711;28;20335;-42
2021/01/24 10:10:58;;;;;;;3.72;2.35;;;3.10;97.90;;;;;;4989935;28;20053;-43
2021/01/24 10:13:24;;;;;;;2.97;2.30;;;3.20;97.90;;;;;;4989652;28;20456;-42
2021/01/24 10:15:51;;;;;;;2.78;2.10;;;3.20;97.90;;;;;;4989048;28;20490;-43
2021/01/24 10:18:17;;;;;;;3.40;2.15;;;3.30;97.90;;;;;;4990155;28;20019;-42
2021/01/24 10:20:43;;;;;;;3.45;1.90;;;3.30;97.80;;;;;;4989800;28;20026;-44
2021/01/24 10:23:09;;;;;;;4.20;2.50;;;3.40;97.80;;;;;;4989062;28;20065;-44
2021/01/24 10:25:35;;;;;;;3.45;1.88;;;3.50;97.80;;;;;;4989462;28;20510;-43
2021/01/24 10:28:01;;;;;;;3.88;2.00;;;3.50;97.70;;;;;;4989020;28;20034;-42
2021/01/24 10:30:26;;;;;;;3.15;1.60;;;3.60;97.70;;;;;;4988893;28;20402;-42
2021/01/24 10:32:52;;;;;;;2.20;1.50;;;3.60;97.60;;;;;;4985929;28;20034;-42
2021/01/24 10:35:20;;;;;;;1.73;1.42;;;3.60;97.50;;;;;;4987965;28;20037;-42
2021/01/24 10:37:46;;;;;;;1.80;1.58;;;3.70;97.50;;;;;;4987426;28;20140;-42
2021/01/24 10:40:15;;;;;;;1.95;1.58;;;3.70;97.50;;;;;;4988624;28;20046;-44
2021/01/24 10:42:41;;;;;;;3.10;1.70;;;3.80;97.60;;;;;;4988093;28;20026;-42
2021/01/24 10:45:08;;;;;;;1.77;1.40;;;3.90;97.50;;;;;;4988165;28;20312;-42
2021/01/24 10:47:33;;;;;;;2.58;1.45;;;3.90;97.40;;;;;;4988256;28;20121;-42
2021/01/24 10:49:59;;;;;;;3.90;2.00;;;3.90;97.30;;;;;;4988119;28;20113;-42
2021/01/24 10:52:25;;;;;;;1.70;1.60;;;4.00;97.20;;;;;;4988824;28;20029;-41
2021/01/24 10:54:51;;;;;;;2.63;1.20;;;4.10;97.30;;;;;;4987624;28;20030;-42
2021/01/24 10:57:16;;;;;;;2.58;1.40;;;4.10;97.20;;;;;;4988945;28;20033;-41
2021/01/24 10:59:42;;;;;;;3.60;1.70;;;4.10;97.20;;;;;;4988103;28;20105;-42
2021/01/24 11:02:07;;;;;;;3.63;1.70;;;4.10;97.20;;;;;;4988560;28;20401;-42
2021/01/24 11:04:34;;;;;;;2.80;1.67;;;4.20;97.20;;;;;;4988184;28;20562;-42
2021/01/24 11:07:04;;;;;;;4.10;2.08;;;4.30;97.20;;;;;;4986603;28;20557;-42
2021/01/24 11:09:29;;;;;;;1.70;1.60;;;4.40;97.00;;;;;;4988572;28;20042;-40
2021/01/24 11:11:55;;;;;;;6.00;2.00;;;4.40;96.80;;;;;;4987927;28;20038;-42
2021/01/24 11:14:21;;;;;;;3.38;1.70;;;4.50;96.80;;;;;;4988141;28;20111;-42
2021/01/24 11:16:52;;;;;;;3.53;1.85;;;4.50;96.70;;;;;;4988297;28;20424;-42
2021/01/24 11:19:18;;;;;;;2.95;1.60;;;4.60;96.70;;;;;;4987455;28;20058;-41
2021/01/24 11:21:43;;;;;;;5.40;1.90;;;4.60;96.40;;;;;;4988367;28;20061;-42
2021/01/24 11:24:09;;;;;;;2.53;1.60;;;4.60;96.60;;;;;;4988099;28;20037;-43
2021/01/24 11:26:35;;;;;;;2.47;1.40;;;4.60;96.40;;;;;;4987547;28;20014;-42
2021/01/24 11:29:00;;;;;;;2.20;1.60;;;4.60;96.40;;;;;;4988059;28;20050;-41
2021/01/24 11:31:26;;;;;;;2.50;1.38;;;4.60;96.40;;;;;;4988159;28;20029;-41
2021/01/24 11:33:52;;;;;;;3.20;1.50;;;4.60;96.40;;;;;;4987320;28;20422;-42
2021/01/24 11:36:17;;;;;;;3.78;1.58;;;4.70;96.40;;;;;;4987835;28;20091;-42
2021/01/24 11:38:43;;;;;;;2.88;1.85;;;4.90;96.30;;;;;;4987816;28;20030;-41
2021/01/24 11:41:09;;;;;;;6.22;1.75;;;5.00;96.20;;;;;;4987658;28;20449;-42
2021/01/24 11:43:34;;;;;;;2.85;1.38;;;5.10;95.70;;;;;;4987914;28;20041;-42
2021/01/24 11:46:00;;;;;;;2.80;1.42;;;5.10;95.80;;;;;;4987741;28;20132;-42
2021/01/24 11:48:26;;;;;;;2.05;1.20;;;5.20;95.80;;;;;;4987564;28;20089;-41
2021/01/24 11:50:53;;;;;;;4.43;1.40;;;5.20;95.80;;;;;;4987123;28;20411;-42
2021/01/24 11:53:20;;;;;;;3.28;1.38;;;5.20;95.70;;;;;;4987908;28;20037;-42
2021/01/24 11:55:45;;;;;;;3.13;1.30;;;5.20;95.70;;;;;;4987151;28;20031;-42
2021/01/24 11:58:11;;;;;;;2.33;1.40;;;5.20;95.70;;;;;;4987893;28;20023;-43
2021/01/24 12:00:36;;;;;;;2.25;1.50;;;5.10;95.70;;;;;;4987259;28;20022;-41
2021/01/24 12:03:02;;;;;;;3.50;1.40;;;5.10;95.80;;;;;;4987584;28;20667;-43
2021/01/24 12:05:27;;;;;;;2.38;1.50;;;5.20;95.90;;;;;;4986624;28;20027;-43
2021/01/24 12:07:53;;;;;;;1.60;1.40;;;5.40;96.00;;;;;;4987014;28;20041;-42
2021/01/24 12:10:21;;;;;;;3.13;1.50;;;5.60;95.90;;;;;;4987441;28;20114;-42
2021/01/24 12:12:47;;;;;;;2.55;1.60;;;5.80;95.70;;;;;;4986909;28;20115;-43
2021/01/24 12:15:12;;;;;;;2.95;1.67;;;6.00;95.50;;;;;;4987034;28;20435;-43
2021/01/24 12:17:38;;;;;;;5.22;2.00;;;6.20;95.10;;;;;;4986911;28;20026;-43
2021/01/24 12:20:04;;;;;;;5.20;1.88;;;6.30;94.80;;;;;;4987417;28;20379;-43
2021/01/24 12:22:30;;;;;;;3.42;1.77;;;6.30;94.70;;;;;;4986698;28;20124;-43
2021/01/24 12:24:55;;;;;;;2.97;2.00;;;6.40;94.60;;;;;;4987088;28;20488;-43
2021/01/24 12:27:21;;;;;;;3.80;2.00;;;6.50;94.70;;;;;;4987471;28;20034;-43
2021/01/24 12:29:46;;;;;;;3.45;1.85;;;6.50;94.30;;;;;;4986353;28;20082;-43
2021/01/24 12:32:12;;;;;;;4.95;2.00;;;6.60;94.30;;;;;;4987062;28;20061;-43
2021/01/24 12:34:37;;;;;;;5.28;1.90;;;6.60;94.10;;;;;;4987121;28;20101;-42
2021/01/24 12:37:03;;;;;;;5.88;2.00;;;6.70;93.80;;;;;;4987047;28;20045;-43
2021/01/24 12:39:28;;;;;;;4.32;2.40;;;6.70;93.60;;;;;;4987683;28;20557;-44
2021/01/24 12:41:54;;;;;;;3.00;2.03;;;6.80;93.50;;;;;;4987602;28;20018;-42
2021/01/24 12:44:22;;;;;;;4.22;2.17;;;6.80;93.50;;;;;;4987331;28;20105;-43
2021/01/24 12:46:47;;;;;;;5.85;2.30;;;6.90;93.40;;;;;;4984348;28;20059;-44
2021/01/24 12:49:13;;;;;;;4.13;2.40;;;6.90;93.30;;;;;;4986703;28;20093;-43
2021/01/24 12:51:38;;;;;;;5.03;2.40;;;6.90;93.10;;;;;;4970627;28;20038;-44
2021/01/24 12:54:07;;;;;;;6.32;3.00;;;6.90;93.10;;;;;;4986977;28;20765;-43